Time;durP1;ratioP1;P1;durP2;ratioP2;P2;SDS_P1;SDS_P2;PMS_P1;PMS_P2;Temp;Humidity;BMP_temperature;BMP_pressure;BME280_temperature;BME280_humidity;BME280_pressure;Samples;Min_cycle;Max_cycle;Signal;HPM_P1;HPM_P2
2023/09/20 00:02:13;;;;;;;5.30;2.87;;;16.90;17.00;;;;;;5015508;28;20415;-69
2023/09/20 00:04:44;;;;;;;2.70;2.50;;;16.90;23.40;;;;;;4981797;28;20458;-69
2023/09/20 00:07:10;;;;;;;2.87;2.67;;;16.90;24.90;;;;;;5015461;28;20415;-69
2023/09/20 00:09:38;;;;;;;8.07;3.20;;;16.90;27.10;;;;;;4996089;28;20434;-69
2023/09/20 00:12:04;;;;;;;3.33;3.03;;;16.90;31.30;;;;;;5015397;28;20271;-69
2023/09/20 00:14:30;;;;;;;3.37;2.60;;;16.90;34.90;;;;;;4997797;28;20791;-74
2023/09/20 00:16:57;;;;;;;3.70;2.90;;;16.90;36.40;;;;;;4995654;28;20461;-69
2023/09/20 00:19:23;;;;;;;4.17;2.87;;;16.90;38.50;;;;;;4997679;28;20263;-72
2023/09/20 00:21:49;;;;;;;7.87;3.50;;;16.90;38.60;;;;;;4997094;28;20522;-72
2023/09/20 00:24:16;;;;;;;6.90;3.67;;;16.90;38.50;;;;;;4996977;28;20485;-69
2023/09/20 00:26:42;;;;;;;3.07;2.87;;;16.90;41.60;;;;;;4980410;28;20184;-76
2023/09/20 00:29:09;;;;;;;3.80;2.93;;;17.00;43.50;;;;;;4997591;28;20419;-69
2023/09/20 00:31:37;;;;;;;2.73;2.53;;;16.90;44.60;;;;;;5014110;28;20447;-69
2023/09/20 00:34:03;;;;;;;5.13;3.67;;;16.90;49.00;;;;;;4995418;28;20176;-70
2023/09/20 00:36:30;;;;;;;5.10;3.57;;;17.00;50.90;;;;;;4981094;28;20557;-69
2023/09/20 00:38:58;;;;;;;7.00;3.60;;;17.00;50.90;;;;;;4996375;28;20550;-68
2023/09/20 00:41:27;;;;;;;9.03;3.40;;;17.00;48.60;;;;;;4996717;28;20415;-69
2023/09/20 00:43:53;;;;;;;6.30;2.87;;;17.00;45.50;;;;;;4997258;28;20438;-69
2023/09/20 00:46:21;;;;;;;4.43;4.07;;;17.00;48.50;;;;;;4996467;28;20852;-70
2023/09/20 00:48:50;;;;;;;3.83;2.43;;;17.00;48.80;;;;;;4997221;28;20419;-71
2023/09/20 00:51:21;;;;;;;6.73;3.07;;;17.00;48.40;;;;;;5013698;28;20423;-68
2023/09/20 00:53:52;;;;;;;7.30;3.37;;;17.00;47.20;;;;;;5013472;28;20423;-73
2023/09/20 00:56:19;;;;;;;4.87;3.50;;;17.10;47.90;;;;;;4996515;28;20967;-69
2023/09/20 00:58:46;;;;;;;5.77;3.30;;;17.10;44.00;;;;;;5014527;28;20934;-70
2023/09/20 01:01:15;;;;;;;5.17;3.33;;;17.10;43.70;;;;;;4996208;28;20511;-68
2023/09/20 01:03:43;;;;;;;6.57;3.40;;;17.10;38.90;;;;;;4996262;28;20438;-69
2023/09/20 01:06:15;;;;;;;9.53;3.93;;;17.10;38.50;;;;;;4995534;28;20431;-70
2023/09/20 01:08:42;;;;;;;8.80;3.63;;;17.10;38.80;;;;;;4995839;28;20446;-69
2023/09/20 01:14:45;;;;;;;6.00;2.50;;;17.10;38.70;;;;;;4970459;28;20533;-69
2023/09/20 01:17:14;;;;;;;4.17;3.30;;;17.10;33.90;;;;;;4896429;29;20972;-70
2023/09/20 01:19:40;;;;;;;6.70;2.73;;;17.10;34.30;;;;;;4996204;28;20879;-69
2023/09/20 01:22:08;;;;;;;8.93;3.23;;;17.10;30.80;;;;;;4980461;28;20489;-69
2023/09/20 01:24:35;;;;;;;4.13;3.17;;;17.20;30.30;;;;;;4994450;28;20795;-70
2023/09/20 01:27:04;;;;;;;3.43;3.13;;;17.20;28.30;;;;;;4995573;28;20435;-70
2023/09/20 01:29:34;;;;;;;5.43;2.93;;;17.20;26.20;;;;;;4996449;28;20430;-68
2023/09/20 01:32:02;;;;;;;5.40;2.80;;;17.20;24.60;;;;;;5013647;28;20446;-69
2023/09/20 01:34:31;;;;;;;6.67;3.13;;;17.20;24.40;;;;;;4979915;28;20803;-70
2023/09/20 01:36:58;;;;;;;5.20;2.93;;;17.20;21.40;;;;;;4995804;28;20470;-70
2023/09/20 01:39:24;;;;;;;5.90;3.07;;;17.30;18.20;;;;;;4978662;28;20458;-72
2023/09/20 01:41:51;;;;;;;10.70;4.03;;;17.30;17.20;;;;;;4978758;28;20819;-71
2023/09/20 01:47:27;;;;;;;4.13;3.20;;;17.30;13.60;;;;;;4978983;28;20417;-69
2023/09/20 01:49:54;;;;;;;12.10;3.37;;;17.30;11.20;;;;;;4978448;28;20399;-69
2023/09/20 01:52:20;;;;;;;6.93;3.57;;;17.40;11.20;;;;;;4996285;28;20931;-70
2023/09/20 01:54:47;;;;;;;4.40;2.80;;;17.40;9.90;;;;;;4978942;28;20447;-69
2023/09/20 01:57:12;;;;;;;4.57;3.00;;;17.40;8.70;;;;;;5009743;28;20274;-72
2023/09/20 01:59:41;;;;;;;6.20;3.87;;;17.40;5.80;;;;;;4979132;28;20841;-70
2023/09/20 02:02:10;;;;;;;6.83;3.00;;;17.40;4.80;;;;;;4995180;28;20200;-71
2023/09/20 02:04:36;;;;;;;8.30;3.80;;;17.40;1.90;;;;;;5005978;28;20467;-69
2023/09/20 02:07:06;;;;;;;4.67;3.60;;;17.40;1.20;;;;;;5012304;28;20430;-69
2023/09/20 02:09:34;;;;;;;4.03;2.60;;;17.50;1.00;;;;;;4993458;28;20439;-80
2023/09/20 02:12:01;;;;;;;4.60;2.83;;;17.50;1.00;;;;;;4995391;28;20447;-70
2023/09/20 02:14:27;;;;;;;6.23;3.50;;;17.40;1.00;;;;;;4996023;28;20415;-69
2023/09/20 02:16:54;;;;;;;6.37;2.83;;;17.50;1.00;;;;;;4978717;28;20291;-71
2023/09/20 02:19:20;;;;;;;4.37;2.97;;;17.50;1.00;;;;;;5013121;28;20408;-69
2023/09/20 02:21:46;;;;;;;3.43;2.63;;;17.50;1.00;;;;;;4978129;28;20501;-69
2023/09/20 02:24:14;;;;;;;9.77;3.97;;;17.50;1.00;;;;;;4979012;28;20426;-71
2023/09/20 02:26:40;;;;;;;5.40;4.10;;;17.50;1.00;;;;;;4981980;28;20442;-70
2023/09/20 02:29:07;;;;;;;5.97;3.00;;;17.50;1.00;;;;;;4995072;28;20809;-68
2023/09/20 02:31:35;;;;;;;4.43;3.47;;;17.50;1.00;;;;;;5012270;28;20828;-71
2023/09/20 02:34:03;;;;;;;4.47;2.90;;;17.50;1.00;;;;;;5011961;28;20419;-72
2023/09/20 02:36:28;;;;;;;5.10;2.50;;;17.60;1.00;;;;;;4993424;28;20947;-70
2023/09/20 02:38:59;;;;;;;7.10;2.70;;;17.50;1.00;;;;;;5013273;28;20412;-70
2023/09/20 02:41:25;;;;;;;5.90;2.90;;;17.50;1.00;;;;;;4991790;28;20656;-69
2023/09/20 02:43:53;;;;;;;11.47;3.40;;;17.50;1.00;;;;;;5013186;28;20418;-71
2023/09/20 02:46:20;;;;;;;3.23;2.37;;;17.50;1.00;;;;;;4995312;28;20910;-69
2023/09/20 02:48:47;;;;;;;6.20;3.03;;;17.50;1.00;;;;;;4994255;28;20415;-69
2023/09/20 02:51:16;;;;;;;5.50;3.30;;;17.50;1.00;;;;;;4994911;28;20442;-70
2023/09/20 02:53:44;;;;;;;4.83;3.13;;;17.60;1.00;;;;;;4995967;28;20404;-69
2023/09/20 02:56:10;;;;;;;5.13;3.00;;;17.60;1.00;;;;;;5011832;28;20549;-70
2023/09/20 02:58:37;;;;;;;6.87;2.80;;;17.60;1.00;;;;;;5010841;28;20431;-70
2023/09/20 03:01:03;;;;;;;4.73;2.60;;;17.60;1.00;;;;;;4994800;28;20455;-69
2023/09/20 03:03:30;;;;;;;9.23;2.77;;;17.60;1.00;;;;;;4999351;28;20969;-69
2023/09/20 03:05:56;;;;;;;6.07;2.20;;;17.60;1.00;;;;;;5014612;28;20566;-69
2023/09/20 03:08:24;;;;;;;7.60;3.17;;;17.50;1.00;;;;;;4996519;28;20438;-69
2023/09/20 03:10:53;;;;;;;4.03;2.80;;;17.50;1.00;;;;;;5015045;28;20954;-71
2023/09/20 03:13:19;;;;;;;4.03;2.83;;;17.50;1.00;;;;;;4982781;28;20509;-68
2023/09/20 03:15:48;;;;;;;6.50;2.70;;;17.50;1.00;;;;;;4998910;28;20459;-71
2023/09/20 03:18:15;;;;;;;4.27;2.57;;;17.50;1.00;;;;;;4981817;28;20458;-79
2023/09/20 03:20:44;;;;;;;3.33;2.80;;;17.50;1.00;;;;;;4995045;28;20491;-70
2023/09/20 03:23:10;;;;;;;4.73;2.40;;;17.50;1.90;;;;;;5015538;28;20579;-71
2023/09/20 03:25:36;;;;;;;4.87;3.13;;;17.50;7.20;;;;;;4965851;28;20798;-70
2023/09/20 03:28:10;;;;;;;3.53;2.60;;;17.40;10.20;;;;;;4981356;28;20443;-69
2023/09/20 03:30:39;;;;;;;8.90;2.50;;;17.40;11.80;;;;;;4997847;28;20438;-68
2023/09/20 03:33:11;;;;;;;6.30;3.27;;;17.40;10.10;;;;;;4998592;28;20427;-71
2023/09/20 03:35:37;;;;;;;3.20;2.90;;;17.40;10.50;;;;;;5016153;28;20453;-70
2023/09/20 03:38:04;;;;;;;5.90;3.60;;;17.40;11.60;;;;;;4964625;28;20443;-69
2023/09/20 03:40:30;;;;;;;4.13;2.37;;;17.40;12.60;;;;;;4996229;28;20473;-70
2023/09/20 03:42:56;;;;;;;12.03;2.60;;;17.40;12.70;;;;;;4981126;28;20463;-71
2023/09/20 03:45:23;;;;;;;6.40;2.93;;;17.40;15.80;;;;;;4998202;28;20563;-70
2023/09/20 03:47:53;;;;;;;7.90;3.20;;;17.40;16.60;;;;;;4982246;28;20461;-71
2023/09/20 03:50:21;;;;;;;8.20;2.90;;;17.40;17.20;;;;;;4996773;28;20481;-69
2023/09/20 03:52:48;;;;;;;4.30;2.40;;;17.40;18.20;;;;;;4997586;28;20519;-69
2023/09/20 03:55:14;;;;;;;5.73;2.53;;;17.40;18.40;;;;;;4997344;28;20489;-71
2023/09/20 03:57:42;;;;;;;7.77;3.50;;;17.40;21.40;;;;;;4979321;28;20791;-69
2023/09/20 04:00:16;;;;;;;3.60;2.73;;;17.40;21.20;;;;;;4996273;28;20447;-72
2023/09/20 04:02:48;;;;;;;4.77;2.90;;;17.40;22.90;;;;;;4998102;28;20518;-71
2023/09/20 04:05:16;;;;;;;4.70;2.10;;;17.40;27.00;;;;;;4982482;28;20415;-71
2023/09/20 04:07:44;;;;;;;4.20;3.00;;;17.40;28.10;;;;;;4965904;28;20791;-71
2023/09/20 04:10:11;;;;;;;5.30;2.70;;;17.40;31.70;;;;;;4980315;28;20434;-74
2023/09/20 04:12:38;;;;;;;4.13;2.60;;;17.30;35.10;;;;;;5010806;28;20953;-73
2023/09/20 04:15:07;;;;;;;4.73;3.10;;;17.30;37.10;;;;;;4965326;28;20419;-70
2023/09/20 04:17:35;;;;;;;7.17;2.77;;;17.30;42.10;;;;;;4982275;28;20918;-70
2023/09/20 04:20:05;;;;;;;6.13;3.53;;;17.30;44.00;;;;;;4995131;28;20432;-70
2023/09/20 04:22:34;;;;;;;6.20;3.77;;;17.30;50.30;;;;;;5013763;28;20487;-72
2023/09/20 04:25:00;;;;;;;8.57;3.10;;;17.30;51.60;;;;;;4997996;28;20755;-68
2023/09/20 04:27:30;;;;;;;6.20;3.00;;;17.30;51.60;;;;;;5014659;28;20404;-69
2023/09/20 04:29:58;;;;;;;14.43;4.63;;;17.30;54.80;;;;;;5014163;28;20920;-68
2023/09/20 04:32:24;;;;;;;4.50;2.83;;;17.30;57.90;;;;;;4995744;28;20457;-71
2023/09/20 04:34:53;;;;;;;6.37;3.23;;;17.30;59.60;;;;;;4981542;28;20515;-68
2023/09/20 04:37:23;;;;;;;4.87;3.30;;;17.30;60.10;;;;;;5014835;28;20458;-70
2023/09/20 04:39:49;;;;;;;6.37;4.20;;;17.40;59.50;;;;;;4995336;28;20850;-70
2023/09/20 04:42:15;;;;;;;6.67;5.00;;;17.40;57.90;;;;;;5012560;28;20915;-71
2023/09/20 04:44:44;;;;;;;5.20;3.63;;;17.40;54.60;;;;;;4981319;28;20435;-69
2023/09/20 04:47:14;;;;;;;3.83;3.50;;;17.40;52.20;;;;;;4997275;28;20514;-73
2023/09/20 04:49:42;;;;;;;9.07;4.50;;;17.40;50.10;;;;;;5012945;28;20403;-72
2023/09/20 04:52:10;;;;;;;4.33;3.57;;;17.40;50.10;;;;;;5010584;28;20443;-66
2023/09/20 04:54:37;;;;;;;7.30;3.93;;;17.40;50.30;;;;;;5012407;28;20419;-67
2023/09/20 04:57:04;;;;;;;4.30;3.00;;;17.50;47.90;;;;;;5014516;28;20546;-68
2023/09/20 04:59:32;;;;;;;5.43;3.90;;;17.50;45.90;;;;;;5013341;28;20428;-68
2023/09/20 05:01:59;;;;;;;7.53;3.17;;;17.50;47.90;;;;;;5012983;28;20508;-67
2023/09/20 05:04:25;;;;;;;7.70;3.63;;;17.50;40.30;;;;;;5011890;28;20434;-72
2023/09/20 05:06:53;;;;;;;7.03;4.50;;;17.50;45.30;;;;;;5010574;28;20517;-68
2023/09/20 05:09:23;;;;;;;6.27;3.90;;;17.50;39.10;;;;;;5009491;28;20433;-71
2023/09/20 05:12:19;;;;;;;5.23;2.90;;;17.50;39.20;;;;;;4993018;28;20465;-70
2023/09/20 05:14:49;;;;;;;8.30;3.90;;;17.50;35.90;;;;;;5001015;28;20450;-68
2023/09/20 05:17:15;;;;;;;6.23;3.87;;;17.50;32.80;;;;;;5009150;28;20963;-70
2023/09/20 05:19:42;;;;;;;7.60;4.17;;;17.50;27.40;;;;;;5009086;28;20450;-71
2023/09/20 05:22:12;;;;;;;5.30;3.70;;;17.50;26.40;;;;;;5011872;28;20593;-70
2023/09/20 05:24:38;;;;;;;5.53;2.90;;;17.50;25.00;;;;;;5013934;28;20898;-73
2023/09/20 05:27:12;;;;;;;4.10;3.40;;;17.50;24.60;;;;;;4979701;28;20846;-69
2023/09/20 05:29:40;;;;;;;5.23;3.10;;;17.50;23.10;;;;;;4979968;28;20435;-70
2023/09/20 05:32:07;;;;;;;4.23;3.73;;;17.50;21.30;;;;;;4995369;28;20533;-68
2023/09/20 05:34:36;;;;;;;3.03;2.57;;;17.50;21.10;;;;;;4996411;28;20756;-70
2023/09/20 05:37:02;;;;;;;9.17;3.00;;;17.50;19.20;;;;;;4995626;28;20481;-69
2023/09/20 05:39:30;;;;;;;6.90;3.30;;;17.50;13.90;;;;;;5009763;28;20816;-68
2023/09/20 05:41:59;;;;;;;3.97;3.27;;;17.50;12.90;;;;;;5011612;28;20450;-68
2023/09/20 05:44:27;;;;;;;6.23;3.43;;;17.50;10.70;;;;;;4996760;28;20403;-69
2023/09/20 05:46:52;;;;;;;7.40;3.00;;;17.40;9.00;;;;;;4996440;28;20431;-71
2023/09/20 05:49:21;;;;;;;10.73;4.33;;;17.50;8.10;;;;;;5011536;28;20430;-69
2023/09/20 05:51:47;;;;;;;7.37;3.70;;;17.50;7.30;;;;;;5010259;28;20196;-70
2023/09/20 05:54:13;;;;;;;6.00;3.40;;;17.50;4.50;;;;;;4996155;28;20494;-69
2023/09/20 05:56:39;;;;;;;4.80;2.90;;;17.60;2.40;;;;;;4996127;28;20203;-68
2023/09/20 05:59:07;;;;;;;7.00;2.87;;;17.60;1.00;;;;;;4979824;28;20180;-69
2023/09/20 06:01:33;;;;;;;5.70;3.37;;;17.60;1.00;;;;;;4979121;28;20203;-69
2023/09/20 06:04:01;;;;;;;6.67;3.57;;;17.60;1.00;;;;;;4980220;28;20403;-68
2023/09/20 06:06:27;;;;;;;4.53;3.33;;;17.60;1.00;;;;;;4980154;28;20500;-70
2023/09/20 06:08:53;;;;;;;6.13;2.90;;;17.70;1.00;;;;;;4980006;28;20896;-71
2023/09/20 06:11:19;;;;;;;9.30;3.37;;;17.70;1.00;;;;;;4995425;28;20530;-69
2023/09/20 06:13:46;;;;;;;8.60;2.77;;;17.70;1.00;;;;;;4980273;28;20437;-69
2023/09/20 06:16:15;;;;;;;8.27;3.50;;;17.70;1.00;;;;;;4980085;28;20442;-68
2023/09/20 06:18:42;;;;;;;3.73;3.00;;;17.70;1.00;;;;;;4996559;28;20900;-70
2023/09/20 06:21:09;;;;;;;7.87;4.33;;;17.70;1.00;;;;;;4995209;28;20427;-69
2023/09/20 06:23:35;;;;;;;5.63;3.37;;;17.70;1.00;;;;;;4979990;28;20418;-70
2023/09/20 06:26:05;;;;;;;5.27;3.60;;;17.70;1.00;;;;;;4996126;28;20923;-69
2023/09/20 06:28:32;;;;;;;3.17;2.80;;;17.80;1.00;;;;;;4979999;28;20419;-70
2023/09/20 06:31:00;;;;;;;5.00;3.10;;;17.80;1.00;;;;;;5012320;28;20438;-70
2023/09/20 06:33:27;;;;;;;5.17;3.20;;;17.80;1.00;;;;;;4995665;28;20415;-70
2023/09/20 06:35:55;;;;;;;4.17;2.60;;;17.80;1.00;;;;;;4997129;28;20557;-69
2023/09/20 06:38:23;;;;;;;9.20;3.40;;;17.90;1.00;;;;;;4984353;28;20485;-68
2023/09/20 06:40:53;;;;;;;6.50;3.60;;;17.90;1.00;;;;;;4999659;28;20501;-68
2023/09/20 06:43:56;;;;;;;2.43;2.23;;;17.90;1.00;;;;;;4983692;28;20502;-69
2023/09/20 06:46:24;;;;;;;11.10;2.57;;;17.90;1.00;;;;;;5010301;28;20480;-68
2023/09/20 06:48:50;;;;;;;6.70;3.00;;;17.90;1.00;;;;;;4983537;28;20903;-70
2023/09/20 06:51:17;;;;;;;8.80;2.80;;;18.00;1.00;;;;;;5016234;28;20431;-69
2023/09/20 06:53:44;;;;;;;6.70;3.20;;;18.00;1.00;;;;;;5016314;28;20423;-69
2023/09/20 06:56:10;;;;;;;9.30;3.30;;;18.00;1.00;;;;;;5017062;28;20450;-70
2023/09/20 06:58:38;;;;;;;4.83;2.77;;;18.00;1.00;;;;;;4983491;28;20399;-68
2023/09/20 07:01:06;;;;;;;9.80;2.93;;;18.10;1.00;;;;;;4998586;28;20523;-68
2023/09/20 07:03:33;;;;;;;3.50;2.90;;;18.20;1.00;;;;;;5016813;28;20466;-70
2023/09/20 07:06:02;;;;;;;4.53;3.43;;;18.20;1.00;;;;;;4983539;28;20498;-70
2023/09/20 07:08:31;;;;;;;5.40;2.40;;;18.20;1.00;;;;;;4983967;28;20438;-69
2023/09/20 07:10:58;;;;;;;4.70;2.50;;;18.20;1.00;;;;;;5014843;28;20431;-68
2023/09/20 07:13:26;;;;;;;3.00;2.60;;;18.30;1.00;;;;;;4999368;28;20423;-71
2023/09/20 07:15:54;;;;;;;2.70;2.50;;;18.30;1.00;;;;;;4982788;28;20455;-70
2023/09/20 07:18:20;;;;;;;4.50;3.13;;;18.30;1.00;;;;;;4999152;28;20418;-68
2023/09/20 07:20:46;;;;;;;4.40;2.13;;;18.40;1.00;;;;;;4998361;28;20439;-67
2023/09/20 07:23:15;;;;;;;4.80;2.90;;;18.30;1.00;;;;;;4980444;28;20185;-68
2023/09/20 07:25:42;;;;;;;10.63;2.73;;;18.40;1.00;;;;;;5013706;28;20560;-69
2023/09/20 07:28:09;;;;;;;9.10;3.40;;;18.50;1.00;;;;;;4981137;28;21380;-69
2023/09/20 07:30:39;;;;;;;6.03;2.40;;;18.60;1.00;;;;;;4995560;28;20776;-68
2023/09/20 07:33:13;;;;;;;2.97;2.57;;;18.60;1.00;;;;;;4983937;28;20487;-70
2023/09/20 07:35:52;;;;;;;4.97;2.70;;;18.70;1.00;;;;;;4999683;28;20954;-68
2023/09/20 07:38:25;;;;;;;6.90;3.73;;;18.70;1.00;;;;;;5000991;28;20435;-70
2023/09/20 07:40:53;;;;;;;4.43;3.40;;;18.70;1.00;;;;;;5015584;28;20426;-68
2023/09/20 07:43:20;;;;;;;5.70;2.90;;;18.70;1.00;;;;;;4999067;28;20518;-68
2023/09/20 07:45:49;;;;;;;5.23;2.50;;;18.80;1.00;;;;;;5015971;28;20429;-71
2023/09/20 07:48:21;;;;;;;4.20;2.90;;;18.80;1.00;;;;;;5014147;28;20469;-68
2023/09/20 07:50:51;;;;;;;3.63;2.70;;;18.80;1.00;;;;;;4981869;28;20439;-68
2023/09/20 07:53:21;;;;;;;5.70;3.00;;;18.90;1.00;;;;;;4998332;28;20510;-70
2023/09/20 07:56:05;;;;;;;5.10;2.83;;;19.00;1.00;;;;;;4998538;28;20463;-69
2023/09/20 07:58:40;;;;;;;5.90;2.40;;;19.00;1.00;;;;;;4982314;28;20477;-70
2023/09/20 08:01:12;;;;;;;7.77;2.77;;;19.00;1.00;;;;;;5014705;28;20414;-68
2023/09/20 08:03:50;;;;;;;5.53;2.53;;;19.00;1.00;;;;;;4998573;28;20424;-68
2023/09/20 08:06:17;;;;;;;3.80;2.67;;;19.10;1.00;;;;;;5015664;28;20411;-68
2023/09/20 08:08:43;;;;;;;6.47;3.60;;;19.10;1.00;;;;;;4997675;28;20419;-69
2023/09/20 08:11:08;;;;;;;3.37;3.07;;;19.10;1.00;;;;;;5014230;28;20776;-67
2023/09/20 08:13:34;;;;;;;2.90;2.60;;;19.10;1.00;;;;;;5015374;28;20636;-70
2023/09/20 08:16:04;;;;;;;2.73;2.47;;;19.10;1.00;;;;;;4997836;28;20214;-70
2023/09/20 08:21:14;;;;;;;5.80;2.90;;;19.20;1.00;;;;;;5014379;28;20410;-66
2023/09/20 08:59:53;;;;;;;5.00;3.00;;;19.30;1.00;;;;;;5014184;28;20485;-70
2023/09/20 09:02:22;;;;;;;5.13;3.77;;;19.30;1.00;;;;;;5014463;28;20469;-70
2023/09/20 09:04:55;;;;;;;7.40;2.73;;;19.30;1.00;;;;;;5013404;28;20461;-70
2023/09/20 09:07:25;;;;;;;9.33;3.50;;;19.30;1.00;;;;;;5013006;28;20474;-68
2023/09/20 09:09:53;;;;;;;13.23;6.10;;;19.20;1.00;;;;;;5011109;28;20428;-68
2023/09/20 09:12:19;;;;;;;12.23;3.80;;;19.30;1.00;;;;;;5012454;28;20439;-68
2023/09/20 09:14:48;;;;;;;4.03;2.67;;;19.40;1.00;;;;;;4980933;28;20465;-68
2023/09/20 09:17:16;;;;;;;7.10;3.10;;;19.40;1.00;;;;;;4980950;28;20462;-71
2023/09/20 09:19:42;;;;;;;5.03;3.80;;;19.40;1.00;;;;;;4995765;28;20416;-69
2023/09/20 09:22:10;;;;;;;3.67;3.37;;;19.40;1.00;;;;;;4980569;28;20428;-70
2023/09/20 09:24:48;;;;;;;5.07;2.83;;;19.40;1.00;;;;;;4980626;28;20963;-70
2023/09/20 09:27:17;;;;;;;10.97;3.93;;;19.40;1.00;;;;;;5014158;28;20864;-69
2023/09/20 09:29:45;;;;;;;6.03;3.13;;;19.50;1.00;;;;;;4995884;28;20904;-69
2023/09/20 09:32:11;;;;;;;4.17;3.63;;;19.90;1.00;;;;;;4980752;28;20434;-68
2023/09/20 09:34:42;;;;;;;3.30;3.07;;;20.10;1.00;;;;;;4980087;28;20911;-72
2023/09/20 09:37:17;;;;;;;4.20;3.00;;;20.00;1.00;;;;;;4997862;28;20479;-69
2023/09/20 09:40:00;;;;;;;3.53;2.90;;;20.10;1.00;;;;;;4995667;28;20396;-68
2023/09/20 09:42:28;;;;;;;3.53;3.20;;;20.00;1.00;;;;;;5013817;28;20816;-69
2023/09/20 09:44:56;;;;;;;3.50;2.93;;;20.00;1.00;;;;;;5013649;28;20502;-69
2023/09/20 09:47:24;;;;;;;6.47;3.33;;;20.00;1.00;;;;;;5013607;28;20978;-69
2023/09/20 09:49:52;;;;;;;6.03;3.30;;;20.10;1.00;;;;;;5012051;28;20422;-70
2023/09/20 09:52:24;;;;;;;6.50;2.83;;;20.10;1.00;;;;;;5013377;28;20446;-69
2023/09/20 09:54:54;;;;;;;8.13;3.53;;;20.30;1.00;;;;;;4997085;28;20828;-69
2023/09/20 09:57:21;;;;;;;6.67;3.53;;;20.40;1.00;;;;;;4995991;28;21033;-68
2023/09/20 09:59:50;;;;;;;5.30;3.30;;;20.40;1.00;;;;;;4995177;28;20411;-68
2023/09/20 10:02:21;;;;;;;13.10;3.37;;;20.30;1.00;;;;;;4979872;28;20466;-69
2023/09/20 10:04:55;;;;;;;4.03;2.73;;;20.20;1.00;;;;;;4995979;28;20477;-68
2023/09/20 10:07:29;;;;;;;9.20;3.43;;;20.10;1.00;;;;;;5013463;28;20410;-68
2023/09/20 10:10:08;;;;;;;7.50;3.47;;;19.90;1.00;;;;;;4995696;28;20419;-69
2023/09/20 10:12:38;;;;;;;3.70;2.97;;;19.90;1.00;;;;;;4981787;28;20446;-70
2023/09/20 10:15:06;;;;;;;4.40;3.03;;;19.80;1.00;;;;;;4980087;28;20916;-69
2023/09/20 10:17:34;;;;;;;4.50;2.50;;;19.70;1.00;;;;;;4995644;28;20570;-69
2023/09/20 10:20:07;;;;;;;4.30;3.07;;;19.80;1.00;;;;;;4995273;28;20422;-68
2023/09/20 10:22:45;;;;;;;7.80;3.10;;;19.80;1.00;;;;;;4980341;28;20799;-70
2023/09/20 10:25:32;;;;;;;3.80;3.07;;;19.90;1.00;;;;;;4997191;28;20422;-68
2023/09/20 10:28:04;;;;;;;3.60;2.70;;;20.00;1.00;;;;;;5013485;28;20498;-69
2023/09/20 10:30:34;;;;;;;7.23;2.77;;;20.10;1.00;;;;;;5012667;28;20439;-68
2023/09/20 10:33:04;;;;;;;3.47;2.80;;;20.20;1.00;;;;;;4996359;28;20506;-68
2023/09/20 10:35:34;;;;;;;3.30;2.80;;;20.20;1.00;;;;;;5013179;28;20429;-68
2023/09/20 10:38:12;;;;;;;12.33;3.57;;;20.30;1.00;;;;;;4980126;28;20427;-68
2023/09/20 10:41:00;;;;;;;3.20;2.47;;;20.30;1.00;;;;;;5012441;28;20415;-69
2023/09/20 10:43:56;;;;;;;8.07;3.10;;;20.30;1.00;;;;;;5013078;28;20454;-68
2023/09/20 10:46:22;;;;;;;7.33;2.83;;;20.40;1.00;;;;;;4979410;28;20435;-68
2023/09/20 10:48:54;;;;;;;7.53;3.00;;;20.60;1.00;;;;;;4963648;28;20538;-69
2023/09/20 10:51:40;;;;;;;11.27;3.50;;;20.70;1.00;;;;;;4995315;28;20442;-71
2023/09/20 10:54:26;;;;;;;4.80;2.97;;;20.60;1.00;;;;;;4995771;28;20433;-70
2023/09/20 10:56:52;;;;;;;2.63;2.43;;;20.80;1.00;;;;;;5009939;28;20818;-68
2023/09/20 10:59:25;;;;;;;6.53;3.50;;;20.80;1.00;;;;;;5012181;28;20415;-68
2023/09/20 11:02:17;;;;;;;12.60;3.43;;;20.80;1.00;;;;;;4978913;28;20800;-69
2023/09/20 11:04:46;;;;;;;3.70;2.87;;;20.90;1.00;;;;;;4980356;28;20431;-68
2023/09/20 11:07:14;;;;;;;4.57;2.77;;;20.90;1.00;;;;;;4996107;28;20506;-68
2023/09/20 11:09:42;;;;;;;3.50;2.97;;;21.00;1.00;;;;;;4978754;28;20931;-69
2023/09/20 11:12:09;;;;;;;6.70;2.60;;;21.10;1.00;;;;;;5012879;28;20481;-68
2023/09/20 11:14:44;;;;;;;3.17;2.00;;;21.30;1.00;;;;;;4995573;28;20415;-68
2023/09/20 11:17:15;;;;;;;4.63;2.90;;;21.60;1.00;;;;;;4995258;28;20494;-68
2023/09/20 11:19:43;;;;;;;4.13;3.73;;;21.80;1.00;;;;;;4978208;28;20930;-67
2023/09/20 11:22:09;;;;;;;7.77;2.80;;;21.80;1.00;;;;;;4980267;28;20446;-69
2023/09/20 11:24:40;;;;;;;2.57;2.37;;;21.80;1.00;;;;;;4998204;28;20427;-69
2023/09/20 11:27:08;;;;;;;4.10;3.20;;;21.90;1.00;;;;;;4998358;28;20423;-69
2023/09/20 11:29:43;;;;;;;9.40;2.70;;;22.00;1.00;;;;;;4981594;28;20835;-72
2023/09/20 11:32:11;;;;;;;5.67;2.60;;;21.90;1.00;;;;;;5016182;28;20438;-68
2023/09/20 11:34:46;;;;;;;3.50;2.33;;;21.90;1.00;;;;;;5016181;28;20399;-69
2023/09/20 11:37:32;;;;;;;2.93;2.63;;;21.80;1.00;;;;;;4998891;28;20462;-69
2023/09/20 11:40:01;;;;;;;2.70;2.00;;;21.80;1.00;;;;;;4982644;28;20489;-69
2023/09/20 11:42:28;;;;;;;3.07;1.83;;;21.80;1.00;;;;;;4982517;28;20443;-68
2023/09/20 11:45:16;;;;;;;5.73;2.47;;;21.60;1.00;;;;;;4998438;28;20911;-68
2023/09/20 11:47:44;;;;;;;4.33;2.63;;;21.70;1.00;;;;;;5015854;28;20435;-68
2023/09/20 11:50:15;;;;;;;7.87;2.80;;;21.80;1.00;;;;;;4981214;28;20434;-71
2023/09/20 11:52:48;;;;;;;6.73;2.27;;;22.00;1.00;;;;;;4982579;28;20935;-70
2023/09/20 11:55:20;;;;;;;8.00;2.83;;;22.00;1.00;;;;;;4998373;28;20422;-68
2023/09/20 11:57:52;;;;;;;3.97;2.10;;;21.90;1.00;;;;;;5015873;28;20825;-68
2023/09/20 12:00:24;;;;;;;5.70;2.80;;;21.80;1.00;;;;;;4997624;28;20411;-70
2023/09/20 12:02:53;;;;;;;3.70;2.30;;;21.70;1.00;;;;;;4998566;28;20437;-68
2023/09/20 12:05:21;;;;;;;4.93;3.20;;;21.60;1.00;;;;;;4998576;28;20411;-67
2023/09/20 12:07:58;;;;;;;3.70;2.27;;;21.50;1.00;;;;;;4998430;28;20888;-68
2023/09/20 12:10:30;;;;;;;2.73;2.53;;;21.40;1.00;;;;;;5014575;28;20863;-68
2023/09/20 12:12:58;;;;;;;4.37;2.77;;;21.20;1.00;;;;;;4982517;28;20411;-68
2023/09/20 12:15:25;;;;;;;3.93;2.07;;;21.30;1.00;;;;;;4997988;28;20430;-69
2023/09/20 12:17:55;;;;;;;3.43;2.40;;;21.30;1.00;;;;;;4982276;28;20407;-71
2023/09/20 12:20:24;;;;;;;3.90;1.83;;;21.30;1.00;;;;;;4996357;28;20472;-68
2023/09/20 12:22:52;;;;;;;3.07;2.53;;;21.50;1.00;;;;;;4982726;28;20423;-70
2023/09/20 12:25:19;;;;;;;3.77;2.40;;;21.70;1.00;;;;;;4981683;28;20415;-68
2023/09/20 12:27:46;;;;;;;5.27;2.20;;;21.80;1.00;;;;;;4997926;28;20415;-68
2023/09/20 12:30:14;;;;;;;7.60;1.90;;;22.00;1.00;;;;;;4996767;28;20440;-69
2023/09/20 12:32:41;;;;;;;5.50;2.40;;;22.20;1.00;;;;;;4998010;28;20435;-69
2023/09/20 12:35:09;;;;;;;2.03;1.93;;;22.60;1.00;;;;;;4981115;28;20409;-68
2023/09/20 12:37:39;;;;;;;2.87;2.40;;;23.00;1.00;;;;;;5015009;28;20458;-69
2023/09/20 12:40:08;;;;;;;3.30;1.80;;;23.50;1.00;;;;;;4997155;28;20439;-70
2023/09/20 12:42:38;;;;;;;5.47;1.70;;;23.90;1.00;;;;;;4981465;28;20546;-70
2023/09/20 12:45:19;;;;;;;2.03;1.90;;;24.40;1.00;;;;;;4997003;28;20506;-68
2023/09/20 12:47:46;;;;;;;6.70;1.90;;;24.70;1.00;;;;;;4997618;28;20431;-69
2023/09/20 12:50:13;;;;;;;2.77;2.17;;;24.90;1.00;;;;;;4996374;28;20493;-68
2023/09/20 12:52:42;;;;;;;5.30;1.90;;;24.90;1.00;;;;;;4980775;28;20531;-68
2023/09/20 12:55:10;;;;;;;6.60;2.10;;;24.90;1.00;;;;;;4997824;28;20422;-68
2023/09/20 12:57:38;;;;;;;2.20;1.77;;;25.00;1.00;;;;;;4981650;28;20547;-68
2023/09/20 13:00:09;;;;;;;3.80;2.30;;;25.30;1.00;;;;;;4996784;28;20820;-68
2023/09/20 13:02:35;;;;;;;5.30;2.07;;;25.80;1.00;;;;;;5014446;28;20939;-66
2023/09/20 13:05:02;;;;;;;3.70;2.10;;;26.50;1.00;;;;;;4995675;28;21026;-66
2023/09/20 13:07:29;;;;;;;3.60;2.03;;;26.90;1.00;;;;;;4996494;28;20423;-69
2023/09/20 13:09:58;;;;;;;2.90;2.10;;;26.40;1.00;;;;;;4995437;28;20788;-69
2023/09/20 13:12:24;;;;;;;6.47;2.70;;;25.70;1.00;;;;;;4981155;28;20446;-70
2023/09/20 13:14:51;;;;;;;4.73;2.23;;;24.90;1.00;;;;;;5013992;28;20971;-71
2023/09/20 13:17:17;;;;;;;5.37;2.47;;;24.20;1.00;;;;;;4995932;28;20601;-68
2023/09/20 13:19:42;;;;;;;4.33;2.40;;;23.60;1.00;;;;;;5012947;28;20254;-67
2023/09/20 13:22:09;;;;;;;4.60;2.73;;;23.20;1.00;;;;;;4996442;28;20196;-67
2023/09/20 13:24:36;;;;;;;3.57;2.80;;;22.90;1.00;;;;;;5013906;28;20191;-67
2023/09/20 13:27:05;;;;;;;5.33;3.40;;;22.70;1.00;;;;;;5013719;28;20411;-67
2023/09/20 13:29:30;;;;;;;4.23;2.80;;;22.50;1.00;;;;;;5013449;28;20461;-69
2023/09/20 13:31:56;;;;;;;4.33;3.00;;;22.40;1.00;;;;;;5013190;28;20431;-67
2023/09/20 13:34:22;;;;;;;3.80;3.20;;;22.40;1.00;;;;;;5013707;28;20656;-67
2023/09/20 13:36:48;;;;;;;4.70;3.40;;;22.20;1.00;;;;;;5013601;28;20715;-66
2023/09/20 13:39:18;;;;;;;3.70;3.30;;;22.10;1.00;;;;;;4996064;28;20192;-66
2023/09/20 13:41:44;;;;;;;5.17;3.40;;;22.00;1.00;;;;;;5012789;28;20427;-67
2023/09/20 13:44:10;;;;;;;3.23;2.63;;;22.00;1.00;;;;;;5013210;28;20411;-68
2023/09/20 13:46:38;;;;;;;4.53;3.30;;;22.00;1.00;;;;;;5013363;28;20411;-67
2023/09/20 13:49:06;;;;;;;6.00;2.87;;;22.20;1.00;;;;;;5013361;28;20188;-67